createdAt,value
2023-02-12T00:00:07.235Z,33.75
2023-02-12T00:02:34.043Z,41.60
2023-02-12T00:05:00.517Z,44.25
2023-02-12T00:07:31.241Z,39.83
2023-02-12T00:09:57.669Z,34.80
2023-02-12T00:12:24.060Z,34.45
2023-02-12T00:14:50.452Z,33.42
2023-02-12T00:17:16.825Z,34.00
2023-02-12T00:19:43.202Z,31.95
2023-02-12T00:22:09.599Z,36.85
2023-02-12T00:24:35.997Z,39.05
2023-02-12T00:27:02.391Z,37.50
2023-02-12T00:29:28.950Z,36.85
2023-02-12T00:31:55.557Z,37.80
2023-02-12T00:34:21.996Z,36.85
2023-02-12T00:36:48.464Z,37.65
2023-02-12T00:39:14.868Z,34.25
2023-02-12T00:41:41.249Z,35.97
2023-02-12T00:44:07.639Z,33.95
2023-02-12T00:46:34.083Z,35.00
2023-02-12T00:49:00.507Z,38.40
2023-02-12T00:51:26.975Z,36.20
2023-02-12T00:53:53.501Z,35.22
2023-02-12T00:56:19.952Z,34.13
2023-02-12T00:58:46.350Z,35.10
2023-02-12T01:01:12.874Z,37.60
2023-02-12T01:03:39.338Z,37.35
2023-02-12T01:06:06.359Z,35.17
2023-02-12T01:08:32.929Z,34.38
2023-02-12T01:11:02.020Z,37.15
2023-02-12T01:13:30.491Z,37.78
2023-02-12T01:16:08.897Z,35.33
2023-02-12T01:18:37.321Z,33.88
2023-02-12T01:21:13.205Z,37.60
2023-02-12T01:23:40.417Z,32.05
2023-02-12T01:26:07.520Z,35.97
2023-02-12T01:28:33.965Z,36.47
2023-02-12T01:31:00.470Z,33.70
2023-02-12T01:33:26.956Z,33.72
2023-02-12T01:35:53.634Z,34.08
2023-02-12T01:38:20.240Z,36.58
2023-02-12T01:40:46.729Z,35.85
2023-02-12T01:43:13.187Z,37.47
2023-02-12T01:45:50.496Z,38.42
2023-02-12T01:48:18.510Z,33.38
2023-02-12T01:50:47.958Z,34.65
2023-02-12T01:53:20.072Z,35.55
2023-02-12T01:55:48.906Z,35.10
2023-02-12T01:58:16.998Z,35.33
2023-02-12T02:00:43.692Z,36.45
2023-02-12T02:03:10.224Z,34.17
2023-02-12T02:05:45.617Z,35.70
2023-02-12T02:08:13.423Z,33.67
2023-02-12T02:10:39.861Z,33.83
2023-02-12T02:13:25.069Z,35.42
2023-02-12T02:15:57.480Z,35.33
2023-02-12T02:18:32.058Z,34.38
2023-02-12T02:21:23.358Z,36.50
2023-02-12T02:24:18.747Z,31.23
2023-02-12T02:27:10.149Z,30.95
2023-02-12T02:29:51.671Z,30.75
2023-02-12T02:32:28.596Z,33.70
2023-02-12T02:34:54.914Z,33.80
2023-02-12T02:37:31.414Z,34.72
2023-02-12T02:40:16.129Z,31.98
2023-02-12T02:42:57.783Z,36.45
2023-02-12T02:45:44.889Z,32.60
2023-02-12T02:48:18.157Z,34.05
2023-02-12T02:50:49.834Z,32.15
2023-02-12T02:55:56.945Z,33.45
2023-02-12T02:58:28.672Z,35.58
2023-02-12T03:01:00.944Z,31.30
2023-02-12T03:03:34.224Z,31.95
2023-02-12T03:06:26.690Z,33.65
2023-02-12T03:09:00.633Z,34.40
2023-02-12T03:11:30.312Z,32.20
2023-02-12T03:14:07.957Z,31.95
2023-02-12T03:16:39.687Z,33.85
2023-02-12T03:19:16.280Z,36.42
2023-02-12T03:21:58.562Z,39.88
2023-02-12T03:24:44.259Z,41.25
2023-02-12T03:28:02.858Z,35.75
2023-02-12T03:30:57.135Z,34.83
2023-02-12T03:33:52.663Z,35.75
2023-02-12T03:36:53.128Z,36.47
2023-02-12T03:39:31.334Z,32.75
2023-02-12T03:42:16.146Z,30.40
2023-02-12T03:44:54.685Z,31.77
2023-02-12T03:47:31.289Z,30.55
2023-02-12T03:50:28.285Z,31.67
2023-02-12T03:52:55.306Z,31.73
2023-02-12T03:55:21.893Z,32.55
2023-02-12T03:57:56.143Z,28.45
2023-02-12T04:00:24.759Z,31.35
2023-02-12T04:02:52.534Z,32.95
2023-02-12T04:05:22.316Z,33.60
2023-02-12T04:07:50.681Z,30.48
2023-02-12T04:10:18.762Z,31.02
2023-02-12T04:13:06.004Z,33.33
2023-02-12T04:16:05.573Z,31.10
2023-02-12T04:18:42.953Z,31.35
2023-02-12T04:21:34.402Z,33.20
2023-02-12T04:24:44.580Z,31.70
2023-02-12T04:27:19.422Z,32.90
2023-02-12T04:30:06.751Z,30.73
2023-02-12T04:32:41.635Z,31.10
2023-02-12T04:35:08.364Z,29.58
2023-02-12T04:37:34.701Z,29.80
2023-02-12T04:40:06.097Z,30.33
2023-02-12T04:42:41.798Z,29.45
2023-02-12T04:45:11.727Z,30.90
2023-02-12T04:47:38.829Z,31.30
2023-02-12T04:50:06.014Z,30.55
2023-02-12T04:52:32.492Z,31.27
2023-02-12T04:54:58.917Z,30.67
2023-02-12T04:57:25.635Z,26.80
2023-02-12T04:59:52.074Z,31.52
2023-02-12T05:02:18.551Z,31.52
2023-02-12T05:04:44.976Z,29.75
2023-02-12T05:07:12.174Z,29.02
2023-02-12T05:09:38.597Z,30.70
2023-02-12T05:12:05.141Z,30.33
2023-02-12T05:14:31.697Z,30.90
2023-02-12T05:16:58.119Z,31.17
2023-02-12T05:19:30.814Z,30.45
2023-02-12T05:21:57.649Z,29.73
2023-02-12T05:24:24.451Z,28.88
2023-02-12T05:26:51.686Z,29.55
2023-02-12T05:29:18.820Z,30.02
2023-02-12T05:31:46.093Z,28.70
2023-02-12T05:34:13.020Z,29.45
2023-02-12T05:36:43.396Z,29.10
2023-02-12T05:39:17.091Z,28.80
2023-02-12T05:41:43.575Z,28.23
2023-02-12T05:44:12.021Z,26.13
2023-02-12T05:46:39.392Z,28.65
2023-02-12T05:49:05.989Z,30.23
2023-02-12T05:51:33.357Z,30.52
2023-02-12T05:54:03.690Z,30.42
2023-02-12T05:56:38.245Z,30.05
2023-02-12T05:59:08.830Z,31.80
2023-02-12T06:01:38.902Z,33.17
2023-02-12T06:04:07.883Z,30.30
2023-02-12T06:06:35.222Z,32.13
2023-02-12T06:09:01.905Z,27.30
2023-02-12T06:11:28.678Z,29.27
2023-02-12T06:13:55.096Z,29.35
2023-02-12T06:16:27.679Z,28.13
2023-02-12T06:18:56.233Z,30.30
2023-02-12T06:21:24.688Z,31.13
2023-02-12T06:23:52.197Z,29.02
2023-02-12T06:26:19.440Z,29.77
2023-02-12T06:28:46.046Z,32.47
2023-02-12T06:31:21.600Z,32.42
2023-02-12T06:33:48.401Z,28.67
2023-02-12T06:36:15.406Z,29.60
2023-02-12T06:38:42.179Z,29.88
2023-02-12T06:41:08.688Z,31.52
2023-02-12T06:43:35.741Z,29.60
2023-02-12T06:46:04.043Z,32.38
2023-02-12T06:48:31.055Z,32.78
2023-02-12T06:51:04.170Z,30.90
2023-02-12T06:53:30.561Z,34.35
2023-02-12T06:55:57.278Z,32.35
2023-02-12T06:58:23.861Z,31.95
2023-02-12T07:00:50.326Z,36.22
2023-02-12T07:03:16.789Z,32.90
2023-02-12T07:05:43.206Z,32.42
2023-02-12T07:08:09.783Z,30.73
2023-02-12T07:10:36.189Z,33.33
2023-02-12T07:13:04.742Z,32.05
2023-02-12T07:15:31.619Z,31.90
2023-02-12T07:17:58.042Z,31.02
2023-02-12T07:20:24.440Z,32.30
2023-02-12T07:22:50.878Z,31.90
2023-02-12T07:25:17.473Z,32.80
2023-02-12T07:27:44.082Z,29.63
2023-02-12T07:30:10.874Z,31.92
2023-02-12T07:32:37.282Z,31.02
2023-02-12T07:35:03.832Z,36.15
2023-02-12T07:37:30.281Z,33.95
2023-02-12T07:39:56.681Z,32.83
2023-02-12T07:42:23.276Z,31.40
2023-02-12T07:44:50.385Z,32.72
2023-02-12T07:47:17.179Z,35.85
2023-02-12T07:49:43.706Z,32.45
2023-02-12T07:52:13.219Z,32.95
2023-02-12T07:54:39.858Z,35.25
2023-02-12T07:57:06.317Z,33.65
2023-02-12T07:59:32.789Z,34.10
2023-02-12T08:02:00.856Z,36.30
2023-02-12T08:04:27.452Z,34.90
2023-02-12T08:06:55.710Z,36.70
2023-02-12T08:09:25.316Z,36.58
2023-02-12T08:11:52.014Z,35.65
2023-02-12T08:14:20.877Z,32.25
2023-02-12T08:16:48.958Z,36.25
2023-02-12T08:19:21.633Z,38.13
2023-02-12T08:21:51.266Z,35.17
2023-02-12T08:24:18.113Z,34.20
2023-02-12T08:26:45.065Z,36.58
2023-02-12T08:29:15.021Z,36.75
2023-02-12T08:31:44.082Z,35.85
2023-02-12T08:34:23.489Z,37.90
2023-02-12T08:36:51.837Z,34.95
2023-02-12T08:39:18.918Z,37.33
2023-02-12T08:41:46.576Z,38.47
2023-02-12T08:44:13.698Z,35.90
2023-02-12T08:46:44.368Z,38.67
2023-02-12T08:49:16.744Z,38.90
2023-02-12T08:51:48.522Z,37.22
2023-02-12T08:54:17.539Z,37.53
2023-02-12T08:56:45.334Z,39.67
2023-02-12T08:59:14.178Z,36.83
2023-02-12T09:01:44.755Z,38.67
2023-02-12T09:04:17.941Z,40.00
2023-02-12T09:06:45.812Z,38.72
2023-02-12T09:09:15.356Z,38.55
2023-02-12T09:11:42.179Z,37.58
2023-02-12T09:14:12.295Z,41.22
2023-02-12T09:16:40.337Z,37.35
2023-02-12T09:19:08.211Z,37.13
2023-02-12T09:21:35.160Z,37.72
2023-02-12T09:24:03.568Z,37.20
2023-02-12T09:26:31.023Z,37.10
2023-02-12T09:28:57.834Z,34.72
2023-02-12T09:31:27.135Z,37.65
2023-02-12T09:34:05.126Z,40.53
2023-02-12T09:36:32.744Z,37.60
2023-02-12T09:39:08.459Z,38.00
2023-02-12T09:41:55.117Z,36.78
2023-02-12T09:44:39.876Z,42.60
2023-02-12T09:47:24.076Z,37.20
2023-02-12T09:50:27.450Z,37.95
2023-02-12T09:52:56.956Z,37.05
2023-02-12T09:55:30.408Z,35.40
2023-02-12T09:57:57.075Z,36.50
2023-02-12T10:00:31.994Z,37.10
2023-02-12T10:03:05.532Z,40.70
2023-02-12T10:05:39.501Z,36.75
2023-02-12T10:08:32.036Z,39.20
2023-02-12T10:11:20.383Z,41.40
2023-02-12T10:14:05.669Z,35.92
2023-02-12T10:16:32.070Z,35.65
2023-02-12T10:19:04.441Z,36.92
2023-02-12T10:21:44.026Z,36.85
2023-02-12T10:24:30.053Z,38.95
2023-02-12T10:27:02.505Z,35.00
2023-02-12T10:29:38.216Z,34.05
2023-02-12T10:32:11.822Z,35.92
2023-02-12T10:34:41.359Z,37.15
2023-02-12T10:37:16.895Z,38.63
2023-02-12T10:39:49.541Z,35.33
2023-02-12T10:42:26.733Z,36.58
2023-02-12T10:44:53.171Z,34.13
2023-02-12T10:47:24.078Z,37.08
2023-02-12T10:50:02.121Z,40.63
2023-02-12T10:52:45.029Z,38.88
2023-02-12T10:55:28.054Z,34.65
2023-02-12T10:57:55.761Z,33.15
2023-02-12T11:00:43.541Z,35.28
2023-02-12T11:03:13.093Z,34.05
2023-02-12T11:05:42.926Z,37.60
2023-02-12T11:08:38.751Z,35.22
2023-02-12T11:11:19.647Z,35.97
2023-02-12T11:14:17.486Z,36.13
2023-02-12T11:16:52.060Z,35.72
2023-02-12T11:19:27.715Z,34.65
2023-02-12T11:22:07.851Z,33.88
2023-02-12T11:24:36.962Z,29.67
2023-02-12T11:27:12.683Z,34.83
2023-02-12T11:29:43.208Z,32.08
2023-02-12T11:32:17.488Z,32.20
2023-02-12T11:34:43.974Z,33.25
2023-02-12T11:37:19.922Z,28.92
2023-02-12T11:39:48.781Z,29.65
2023-02-12T11:42:23.209Z,30.17
2023-02-12T11:44:59.284Z,28.75
2023-02-12T11:47:31.813Z,30.38
2023-02-12T11:50:33.236Z,29.30
2023-02-12T11:53:04.603Z,25.98
2023-02-12T11:55:35.225Z,27.05
2023-02-12T11:58:15.390Z,24.33
2023-02-12T12:00:52.179Z,27.45
2023-02-12T12:03:28.755Z,28.48
2023-02-12T12:06:17.085Z,26.30
2023-02-12T12:08:48.304Z,28.58
2023-02-12T12:11:25.053Z,26.98
2023-02-12T12:14:03.748Z,27.85
2023-02-12T12:17:06.368Z,28.83
2023-02-12T12:19:54.786Z,26.65
2023-02-12T12:22:31.152Z,29.27
2023-02-12T12:25:09.961Z,29.42
2023-02-12T12:28:02.081Z,29.02
2023-02-12T12:30:37.832Z,29.52
2023-02-12T12:33:13.131Z,35.10
2023-02-12T12:35:50.497Z,29.20
2023-02-12T12:38:52.922Z,26.55
2023-02-12T12:41:48.047Z,28.80
2023-02-12T12:44:35.349Z,27.05
2023-02-12T12:47:32.459Z,27.25
2023-02-12T12:50:10.994Z,26.55
2023-02-12T12:52:40.437Z,27.25
2023-02-12T12:55:44.253Z,27.08
2023-02-12T12:58:19.799Z,28.85
2023-02-12T13:01:26.223Z,26.88
2023-02-12T13:04:22.542Z,30.40
2023-02-12T13:07:07.914Z,25.63
2023-02-12T13:09:46.485Z,26.98
2023-02-12T13:12:33.860Z,30.45
2023-02-12T13:15:38.964Z,28.63
2023-02-12T13:18:20.398Z,26.63
2023-02-12T13:23:51.119Z,25.10
2023-02-12T13:26:37.490Z,22.45
2023-02-12T13:29:16.567Z,25.45
2023-02-12T13:31:50.138Z,24.38
2023-02-12T13:34:18.625Z,26.23
2023-02-12T13:36:46.115Z,27.05
2023-02-12T13:39:12.556Z,27.10
2023-02-12T13:41:45.524Z,22.73
2023-02-12T13:44:37.630Z,23.60
2023-02-12T13:47:22.794Z,23.30
2023-02-12T13:49:52.057Z,22.08
2023-02-12T13:52:40.642Z,25.02
2023-02-12T13:55:28.538Z,21.95
2023-02-12T13:58:32.221Z,26.98
2023-02-12T14:01:02.653Z,23.88
2023-02-12T14:03:31.058Z,25.77
2023-02-12T14:06:17.888Z,25.27
2023-02-12T14:08:48.361Z,25.95
2023-02-12T14:11:19.336Z,27.13
2023-02-12T14:13:52.609Z,29.10
2023-02-12T14:16:40.601Z,29.10
2023-02-12T14:19:44.461Z,25.33
2023-02-12T14:22:32.797Z,26.80
2023-02-12T14:25:02.444Z,24.35
2023-02-12T14:27:28.987Z,29.52
2023-02-12T14:30:01.174Z,27.58
2023-02-12T14:32:58.208Z,28.25
2023-02-12T14:35:36.815Z,26.65
2023-02-12T14:38:47.785Z,30.23
2023-02-12T14:41:38.948Z,29.05
2023-02-12T14:44:17.769Z,29.00
2023-02-12T14:46:51.861Z,29.83
2023-02-12T14:49:44.398Z,29.48
2023-02-12T14:52:13.747Z,29.42
2023-02-12T14:54:42.498Z,29.45
2023-02-12T14:57:21.887Z,29.92
2023-02-12T14:59:49.929Z,27.88
2023-02-12T15:02:26.842Z,26.20
2023-02-12T15:04:58.294Z,20.33
2023-02-12T15:07:33.069Z,20.42
2023-02-12T15:10:10.177Z,19.30
2023-02-12T15:12:46.089Z,22.02
2023-02-12T15:15:12.764Z,22.10
2023-02-12T15:17:41.962Z,22.48
2023-02-12T15:20:21.016Z,23.98
2023-02-12T15:22:47.481Z,24.02
2023-02-12T15:25:25.765Z,22.08
2023-02-12T15:28:00.571Z,24.02
2023-02-12T15:30:30.446Z,22.75
2023-02-12T15:32:59.637Z,24.95
2023-02-12T15:35:32.818Z,24.67
2023-02-12T15:38:01.207Z,26.75
2023-02-12T15:40:29.641Z,27.15
2023-02-12T15:43:04.480Z,26.55
2023-02-12T15:45:36.062Z,26.33
2023-02-12T15:48:13.083Z,28.90
2023-02-12T15:51:14.204Z,27.45
2023-02-12T15:53:41.823Z,27.85
2023-02-12T15:56:18.718Z,28.65
2023-02-12T15:58:57.568Z,29.13
2023-02-12T16:01:30.375Z,29.15
2023-02-12T16:03:59.115Z,33.90
2023-02-12T16:06:28.006Z,31.85
2023-02-12T16:08:59.323Z,31.75
2023-02-12T16:11:27.182Z,28.38
2023-02-12T16:14:00.948Z,32.95
2023-02-12T16:16:40.671Z,31.73
2023-02-12T16:19:18.415Z,29.38
2023-02-12T16:21:48.184Z,30.50
2023-02-12T16:24:37.484Z,28.33
2023-02-12T16:30:48.192Z,26.85
2023-02-12T16:33:34.174Z,28.03
2023-02-12T16:36:07.579Z,37.45
2023-02-12T16:38:40.254Z,31.23
2023-02-12T16:41:18.759Z,30.17
2023-02-12T16:43:46.074Z,30.08
2023-02-12T16:46:13.802Z,32.20
2023-02-12T16:48:43.337Z,30.30
2023-02-12T16:51:26.384Z,34.85
2023-02-12T16:53:57.398Z,34.67
2023-02-12T16:56:36.081Z,35.88
2023-02-12T16:59:02.825Z,32.75
2023-02-12T17:01:33.345Z,32.25
2023-02-12T17:04:02.309Z,31.33
2023-02-12T17:06:31.154Z,32.05
2023-02-12T17:08:58.307Z,33.03
2023-02-12T17:11:26.408Z,32.92
2023-02-12T17:13:54.688Z,32.22
2023-02-12T17:16:31.092Z,32.42
2023-02-12T17:18:58.945Z,32.17
2023-02-12T17:21:31.581Z,34.90
2023-02-12T17:23:58.399Z,34.50
2023-02-12T17:26:25.431Z,33.13
2023-02-12T17:28:51.928Z,36.90
2023-02-12T17:31:20.558Z,33.22
2023-02-12T17:33:47.075Z,34.45
2023-02-12T17:36:13.560Z,37.83
2023-02-12T17:38:39.985Z,33.60
2023-02-12T17:41:10.894Z,30.92
2023-02-12T17:43:37.432Z,34.45
2023-02-12T17:46:18.490Z,34.40
2023-02-12T17:48:45.049Z,36.63
2023-02-12T17:51:13.327Z,35.65
2023-02-12T17:53:40.838Z,35.03
2023-02-12T17:56:16.463Z,33.75
2023-02-12T17:58:43.927Z,36.78
2023-02-12T18:01:13.375Z,38.85
2023-02-12T18:03:39.885Z,37.90
2023-02-12T18:06:07.329Z,37.22
2023-02-12T18:08:34.054Z,36.03
2023-02-12T18:11:06.167Z,37.42
2023-02-12T18:13:32.912Z,42.28
2023-02-12T18:15:59.389Z,48.55
2023-02-12T18:18:25.879Z,46.13
2023-02-12T18:20:52.432Z,47.78
2023-02-12T18:23:19.100Z,46.33
2023-02-12T18:25:45.531Z,45.20
2023-02-12T18:28:12.760Z,47.55
2023-02-12T18:30:42.719Z,47.03
2023-02-12T18:33:11.149Z,41.85
2023-02-12T18:35:37.617Z,47.58
2023-02-12T18:38:04.078Z,56.15
2023-02-12T18:40:30.585Z,50.85
2023-02-12T18:42:57.032Z,53.63
2023-02-12T18:45:23.716Z,52.78
2023-02-12T18:47:50.144Z,62.78
2023-02-12T18:50:16.824Z,56.80
2023-02-12T18:52:43.221Z,48.17
2023-02-12T18:55:09.656Z,40.17
2023-02-12T18:57:36.109Z,44.30
2023-02-12T19:00:04.339Z,43.47
2023-02-12T19:02:30.851Z,40.30
2023-02-12T19:04:57.359Z,39.25
2023-02-12T19:07:23.855Z,42.95
2023-02-12T19:09:50.697Z,43.22
2023-02-12T19:12:17.175Z,45.22
2023-02-12T19:14:43.635Z,38.20
2023-02-12T19:17:10.104Z,40.95
2023-02-12T19:19:36.681Z,46.67
2023-02-12T19:22:03.178Z,43.17
2023-02-12T19:24:44.383Z,46.33
2023-02-12T19:27:12.514Z,45.10
2023-02-12T19:29:38.943Z,48.58
2023-02-12T19:32:05.479Z,44.72
2023-02-12T19:34:32.048Z,47.03
2023-02-12T19:36:58.540Z,48.42
2023-02-12T19:39:25.175Z,47.05
2023-02-12T19:41:52.093Z,46.85
2023-02-12T19:44:23.214Z,42.45
2023-02-12T19:46:50.074Z,47.53
2023-02-12T19:49:19.322Z,47.35
2023-02-12T19:51:46.501Z,44.67
2023-02-12T19:54:15.078Z,43.70
2023-02-12T19:56:42.160Z,43.72
2023-02-12T19:59:08.940Z,45.88
2023-02-12T20:01:35.630Z,44.30
2023-02-12T20:04:03.326Z,47.20
2023-02-12T20:06:33.557Z,43.53
2023-02-12T20:09:00.194Z,41.25
2023-02-12T20:11:31.640Z,39.53
2023-02-12T20:13:58.322Z,36.97
2023-02-12T20:16:31.251Z,37.90
2023-02-12T20:19:04.408Z,37.15
2023-02-12T20:21:30.992Z,42.95
2023-02-12T20:23:58.490Z,39.42
2023-02-12T20:26:25.786Z,37.28
2023-02-12T20:28:52.506Z,37.10
2023-02-12T20:31:22.399Z,39.28
2023-02-12T20:33:53.063Z,37.85
2023-02-12T20:36:19.485Z,38.90
2023-02-12T20:38:50.110Z,38.58
2023-02-12T20:41:16.572Z,35.43
2023-02-12T20:43:42.965Z,35.45
2023-02-12T20:46:14.535Z,33.33
2023-02-12T20:48:42.073Z,36.05
2023-02-12T20:51:11.580Z,37.58
2023-02-12T20:53:38.766Z,33.88
2023-02-12T20:56:08.057Z,34.40
2023-02-12T20:58:34.564Z,31.67
2023-02-12T21:01:09.358Z,33.70
2023-02-12T21:03:36.639Z,28.95
2023-02-12T21:06:03.995Z,32.33
2023-02-12T21:08:31.542Z,33.42
2023-02-12T21:11:14.457Z,33.05
2023-02-12T21:13:58.567Z,30.65
2023-02-12T21:16:32.140Z,29.38
2023-02-12T21:18:58.805Z,32.22
2023-02-12T21:21:30.394Z,32.28
2023-02-12T21:26:26.453Z,32.03
2023-02-12T21:28:55.069Z,30.50
2023-02-12T21:31:42.512Z,31.48
2023-02-12T21:34:13.302Z,33.22
2023-02-12T21:36:41.979Z,36.13
2023-02-12T21:39:11.550Z,33.45
2023-02-12T21:41:39.692Z,35.95
2023-02-12T21:44:11.910Z,34.78
2023-02-12T21:46:38.651Z,39.15
2023-02-12T21:49:05.288Z,39.35
2023-02-12T21:51:34.446Z,40.20
2023-02-12T21:54:03.703Z,43.13
2023-02-12T21:56:30.649Z,41.17
2023-02-12T21:59:05.010Z,41.40
2023-02-12T22:01:34.563Z,38.08
2023-02-12T22:04:02.764Z,40.90
2023-02-12T22:06:29.612Z,40.22
2023-02-12T22:09:01.123Z,40.67
2023-02-12T22:13:57.309Z,36.58
2023-02-12T22:16:26.050Z,37.05
2023-02-12T22:18:59.372Z,38.92
2023-02-12T22:21:29.886Z,42.75
2023-02-12T22:23:57.276Z,37.35
2023-02-12T22:26:26.745Z,39.72
2023-02-12T22:28:59.321Z,38.88
2023-02-12T22:31:31.407Z,40.58
2023-02-12T22:34:00.957Z,40.42
2023-02-12T22:36:29.445Z,38.28
2023-02-12T22:38:59.291Z,37.03
2023-02-12T22:41:26.435Z,40.05
2023-02-12T22:43:52.857Z,38.58
2023-02-12T22:46:19.746Z,38.10
2023-02-12T22:48:46.763Z,38.58
2023-02-12T22:51:26.737Z,39.28
2023-02-12T22:53:54.631Z,37.72
2023-02-12T22:56:21.561Z,37.90
2023-02-12T22:58:48.587Z,35.92
2023-02-12T23:01:18.046Z,42.45
2023-02-12T23:03:45.904Z,45.85
2023-02-12T23:06:15.662Z,46.97
2023-02-12T23:08:43.072Z,48.75
2023-02-12T23:11:10.726Z,40.22
2023-02-12T23:13:37.498Z,42.70
2023-02-12T23:16:04.500Z,37.30
2023-02-12T23:18:31.848Z,42.40
2023-02-12T23:20:58.692Z,37.05
2023-02-12T23:23:25.483Z,35.15
2023-02-12T23:25:53.870Z,35.35
2023-02-12T23:28:21.408Z,33.78
2023-02-12T23:30:49.261Z,36.03
2023-02-12T23:33:15.980Z,36.35
2023-02-12T23:35:42.697Z,35.65
2023-02-12T23:38:09.087Z,37.72
2023-02-12T23:40:35.518Z,35.53
2023-02-12T23:43:02.007Z,34.78
2023-02-12T23:45:28.719Z,36.15
2023-02-12T23:47:55.188Z,35.72
2023-02-12T23:50:22.041Z,32.45
2023-02-12T23:52:48.482Z,37.22
2023-02-12T23:55:15.369Z,32.78
2023-02-12T23:57:41.857Z,36.45
